Station Historical Data
Daily Summary for February 25, 2018 Units:  English    Metric   Both
« Previous Day
Next Day »
Daily Weekly Monthly Yearly Custom
  High: Low: Average:
Temperature: 56.2 °F 34.5 °F 41 °F
Dew Point: 50.8 °F 29.7 °F 35.8 °F
Humidity: 90% 70% 82%
Wind Speed: 21.0mph 1.0mph 9.2mph
Wind Gust: 34.0mph - -
Wind- - SSW
Pressure: 30.06 in 29.60 in -
Precipitation: 0.00 in    
Historical Graphs
 
 
Tabular Data for February 25, 2018
Time Temperature Dew Point Pressure Wind Wind Speed Wind Gust Humidity Rainfall Rate (Hourly)
00:04 38.3 °F 33.0 °F 30.05 in East 7.0 mph 9.0 mph 81% 0.00 in
00:09 38.4 °F 33.1 °F 30.04 in East 3.0 mph 9.0 mph 81% 0.00 in
00:14 38.5 °F 33.2 °F 30.04 in NE 5.0 mph 9.0 mph 81% 0.00 in
00:19 38.6 °F 33.3 °F 30.04 in ENE 1.0 mph 8.0 mph 81% 0.00 in
00:24 38.6 °F 33.6 °F 30.03 in ENE 3.0 mph 9.0 mph 82% 0.00 in
00:29 38.7 °F 33.7 °F 30.02 in ENE 4.0 mph 9.0 mph 82% 0.00 in
00:34 38.7 °F 33.7 °F 30.01 in ENE 4.0 mph 9.0 mph 82% 0.00 in
00:39 38.8 °F 33.8 °F 30.01 in ENE 5.0 mph 10.0 mph 82% 0.00 in
00:44 38.9 °F 33.6 °F 30.00 in ENE 8.0 mph 9.0 mph 81% 0.00 in
00:49 38.9 °F 33.6 °F 30.00 in East 6.0 mph 13.0 mph 81% 0.00 in
00:54 39.0 °F 33.7 °F 29.99 in NE 7.0 mph 11.0 mph 81% 0.00 in
00:59 39.0 °F 33.7 °F 29.99 in ENE 5.0 mph 11.0 mph 81% 0.00 in
01:04 39.0 °F 33.7 °F 29.98 in ENE 5.0 mph 11.0 mph 81% 0.00 in
01:09 39.0 °F 33.7 °F 29.97 in NE 3.0 mph 9.0 mph 81% 0.00 in
01:14 38.9 °F 33.6 °F 29.97 in ENE 5.0 mph 14.0 mph 81% 0.00 in
01:19 38.9 °F 33.6 °F 29.95 in East 9.0 mph 13.0 mph 81% 0.00 in
01:24 38.8 °F 33.5 °F 29.95 in NE 7.0 mph 11.0 mph 81% 0.00 in
01:29 38.7 °F 33.7 °F 29.95 in ENE 6.0 mph 12.0 mph 82% 0.00 in
01:34 38.6 °F 33.6 °F 29.95 in ESE 5.0 mph 13.0 mph 82% 0.00 in
01:39 38.6 °F 33.6 °F 29.94 in East 7.0 mph 10.0 mph 82% 0.00 in
01:44 38.5 °F 33.5 °F 29.94 in East 3.0 mph 9.0 mph 82% 0.00 in
01:49 38.4 °F 33.7 °F 29.92 in East 2.0 mph 10.0 mph 83% 0.00 in
01:54 38.3 °F 33.6 °F 29.92 in ENE 8.0 mph 10.0 mph 83% 0.01 in
01:59 38.2 °F 33.5 °F 29.91 in ENE 4.0 mph 10.0 mph 83% 0.01 in
02:04 38.1 °F 33.7 °F 29.90 in ENE 5.0 mph 11.0 mph 84% 0.01 in
02:09 38.0 °F 33.6 °F 29.89 in ENE 5.0 mph 11.0 mph 84% 0.01 in
02:14 38.0 °F 33.9 °F 29.88 in ENE 4.0 mph 10.0 mph 85% 0.02 in
02:19 38.0 °F 33.9 °F 29.88 in ENE 4.0 mph 9.0 mph 85% 0.02 in
02:24 38.0 °F 34.2 °F 29.87 in NNE 4.0 mph 11.0 mph 86% 0.02 in
02:29 38.0 °F 34.2 °F 29.87 in ENE 5.0 mph 11.0 mph 86% 0.02 in
02:34 38.0 °F 34.2 °F 29.87 in NE 3.0 mph 10.0 mph 86% 0.03 in
02:39 38.0 °F 34.2 °F 29.86 in ENE 4.0 mph 10.0 mph 86% 0.04 in
02:44 38.1 °F 34.6 °F 29.86 in East 5.0 mph 7.0 mph 87% 0.04 in
02:49 38.1 °F 34.6 °F 29.86 in ESE 4.0 mph 8.0 mph 87% 0.04 in
02:54 38.2 °F 34.7 °F 29.85 in NE 4.0 mph 10.0 mph 87% 0.04 in
02:59 38.3 °F 34.8 °F 29.84 in ENE 4.0 mph 10.0 mph 87% 0.05 in
03:04 38.2 °F 35.0 °F 29.84 in ENE 3.0 mph 8.0 mph 88% 0.05 in
03:09 38.3 °F 35.1 °F 29.83 in ENE 3.0 mph 8.0 mph 88% 0.05 in
03:14 38.4 °F 35.2 °F 29.83 in ENE 3.0 mph 7.0 mph 88% 0.05 in
03:19 38.4 °F 35.2 °F 29.83 in ENE 3.0 mph 6.0 mph 88% 0.05 in
03:24 38.5 °F 35.3 °F 29.82 in ENE 3.0 mph 7.0 mph 88% 0.05 in
03:34 38.6 °F 35.4 °F 29.80 in ENE 2.0 mph 6.0 mph 88% 0.05 in
03:39 38.7 °F 35.7 °F 29.80 in East 3.0 mph 5.0 mph 89% 0.04 in
03:44 38.8 °F 35.8 °F 29.80 in East 2.0 mph 5.0 mph 89% 0.05 in
03:49 39.0 °F 36.0 °F 29.78 in ESE 3.0 mph 10.0 mph 89% 0.05 in
03:54 39.3 °F 36.3 °F 29.77 in ENE 2.0 mph 6.0 mph 89% 0.05 in
03:59 39.9 °F 37.2 °F 29.76 in SE 3.0 mph 11.0 mph 90% 0.05 in
04:04 40.7 °F 38.0 °F 29.75 in South 5.0 mph 11.0 mph 90% 0.05 in
04:09 41.3 °F 38.6 °F 29.75 in SE 6.0 mph 12.0 mph 90% 0.06 in
04:14 41.9 °F 39.2 °F 29.73 in SSE 7.0 mph 16.0 mph 90% 0.05 in
04:19 42.2 °F 39.5 °F 29.72 in SE 7.0 mph 17.0 mph 90% 0.05 in
04:24 42.5 °F 39.8 °F 29.71 in SE 7.0 mph 19.0 mph 90% 0.05 in
04:29 42.8 °F 40.1 °F 29.69 in SE 6.0 mph 19.0 mph 90% 0.04 in
04:34 43.1 °F 40.4 °F 29.68 in SE 7.0 mph 15.0 mph 90% 0.04 in
04:39 43.3 °F 40.6 °F 29.68 in SSE 4.0 mph 15.0 mph 90% 0.04 in
04:44 43.6 °F 40.9 °F 29.67 in SE 11.0 mph 17.0 mph 90% 0.03 in
04:49 44.0 °F 41.3 °F 29.65 in SE 8.0 mph 20.0 mph 90% 0.03 in
04:54 44.4 °F 41.7 °F 29.64 in East 10.0 mph 20.0 mph 90% 0.02 in
04:59 44.7 °F 41.9 °F 29.65 in SSE 9.0 mph 19.0 mph 90% 0.01 in
05:04 44.9 °F 41.9 °F 29.66 in SSE 8.0 mph 19.0 mph 89% 0.01 in
05:09 45.2 °F 42.2 °F 29.65 in SSE 9.0 mph 21.0 mph 89% 0.00 in
05:14 45.4 °F 42.3 °F 29.64 in SSE 11.0 mph 21.0 mph 89% 0.01 in
05:19 45.7 °F 42.6 °F 29.64 in SSE 6.0 mph 22.0 mph 89% 0.01 in
05:24 45.8 °F 42.4 °F 29.63 in SSE 8.0 mph 15.0 mph 88% 0.01 in
05:29 45.9 °F 42.5 °F 29.62 in SSE 11.0 mph 19.0 mph 88% 0.01 in
05:34 46.0 °F 42.6 °F 29.62 in SSE 7.0 mph 19.0 mph 88% 0.01 in
05:39 46.0 °F 42.6 °F 29.62 in SSE 7.0 mph 16.0 mph 88% 0.01 in
05:44 46.1 °F 42.7 °F 29.62 in SSE 8.0 mph 17.0 mph 88% 0.01 in
05:49 46.2 °F 42.5 °F 29.63 in SSE 7.0 mph 17.0 mph 87% 0.01 in
05:54 46.3 °F 42.6 °F 29.62 in South 6.0 mph 11.0 mph 87% 0.01 in
05:59 46.6 °F 43.2 °F 29.61 in SE 5.0 mph 12.0 mph 88% 0.01 in
06:04 46.7 °F 43.0 °F 29.62 in SSE 5.0 mph 12.0 mph 87% 0.01 in
06:09 47.1 °F 43.4 °F 29.62 in SSE 6.0 mph 14.0 mph 87% 0.01 in
06:14 47.5 °F 43.8 °F 29.63 in SSE 7.0 mph 14.0 mph 87% 0.00 in
06:19 48.0 °F 44.3 °F 29.63 in SSW 8.0 mph 19.0 mph 87% 0.00 in
06:24 48.4 °F 44.7 °F 29.60 in SE 5.0 mph 17.0 mph 87% 0.00 in
06:29 48.7 °F 44.7 °F 29.63 in South 8.0 mph 17.0 mph 86% 0.00 in
06:34 48.9 °F 44.6 °F 29.63 in South 7.0 mph 17.0 mph 85% 0.00 in
06:39 49.0 °F 44.7 °F 29.63 in South 7.0 mph 12.0 mph 85% 0.00 in
06:44 49.2 °F 44.9 °F 29.62 in South 7.0 mph 18.0 mph 85% 0.00 in
06:49 49.5 °F 45.2 °F 29.62 in South 8.0 mph 18.0 mph 85% 0.00 in
06:54 49.7 °F 45.1 °F 29.61 in South 8.0 mph 17.0 mph 84% 0.00 in
06:59 49.9 °F 45.3 °F 29.62 in WSW 6.0 mph 21.0 mph 84% 0.00 in
07:04 50.2 °F 45.2 °F 29.63 in SSW 7.0 mph 22.0 mph 83% 0.00 in
07:09 50.5 °F 45.5 °F 29.62 in South 8.0 mph 22.0 mph 83% 0.00 in
07:14 50.7 °F 45.7 °F 29.62 in South 12.0 mph 18.0 mph 83% 0.00 in
07:19 51.0 °F 46.0 °F 29.61 in South 8.0 mph 16.0 mph 83% 0.00 in
07:24 51.1 °F 45.8 °F 29.61 in South 5.0 mph 17.0 mph 82% 0.00 in
07:29 51.2 °F 45.9 °F 29.62 in SSE 9.0 mph 15.0 mph 82% 0.00 in
07:34 51.4 °F 46.1 °F 29.61 in South 8.0 mph 16.0 mph 82% 0.00 in
07:39 51.5 °F 46.2 °F 29.62 in South 8.0 mph 16.0 mph 82% 0.00 in
07:44 51.7 °F 46.4 °F 29.62 in South 8.0 mph 17.0 mph 82% 0.00 in
07:49 51.8 °F 46.8 °F 29.62 in South 4.0 mph 17.0 mph 83% 0.00 in
07:54 51.9 °F 46.9 °F 29.62 in South 9.0 mph 14.0 mph 83% 0.00 in
07:59 52.0 °F 47.0 °F 29.62 in SSW 11.0 mph 20.0 mph 83% 0.00 in
08:04 52.0 °F 47.3 °F 29.62 in South 9.0 mph 20.0 mph 84% 0.01 in
08:09 52.1 °F 47.4 °F 29.62 in South 8.0 mph 16.0 mph 84% 0.01 in
08:14 52.2 °F 47.5 °F 29.62 in SSW 14.0 mph 20.0 mph 84% 0.01 in
08:19 52.3 °F 47.9 °F 29.62 in SSW 11.0 mph 16.0 mph 85% 0.01 in
08:24 52.4 °F 48.0 °F 29.62 in South 10.0 mph 15.0 mph 85% 0.01 in
08:29 52.6 °F 48.5 °F 29.63 in South 5.0 mph 23.0 mph 86% 0.01 in
08:34 53.1 °F 49.0 °F 29.62 in South 9.0 mph 23.0 mph 86% 0.01 in
08:39 53.5 °F 49.4 °F 29.63 in SSW 6.0 mph 20.0 mph 86% 0.01 in
08:44 54.1 °F 50.0 °F 29.62 in SSW 9.0 mph 20.0 mph 86% 0.01 in
08:49 54.6 °F 50.2 °F 29.62 in WSW 8.0 mph 26.0 mph 85% 0.01 in
08:54 54.9 °F 50.2 °F 29.63 in SW 10.0 mph 18.0 mph 84% 0.01 in
08:59 55.2 °F 50.4 °F 29.62 in SSW 15.0 mph 21.0 mph 84% 0.01 in
09:04 55.7 °F 50.6 °F 29.62 in SSW 9.0 mph 23.0 mph 83% 0.00 in
09:09 56.1 °F 50.7 °F 29.62 in SSW 11.0 mph 23.0 mph 82% 0.00 in
09:14 56.2 °F 50.8 °F 29.65 in SSW 10.0 mph 25.0 mph 82% 0.00 in
09:19 55.5 °F 49.8 °F 29.67 in SW 12.0 mph 26.0 mph 81% 0.01 in
09:24 53.8 °F 47.1 °F 29.68 in SSW 21.0 mph 32.0 mph 78% 0.01 in
09:29 52.5 °F 45.8 °F 29.68 in SW 16.0 mph 28.0 mph 78% 0.01 in
09:34 51.7 °F 45.4 °F 29.69 in West 15.0 mph 29.0 mph 79% 0.01 in
09:39 50.8 °F 44.2 °F 29.70 in SSW 12.0 mph 32.0 mph 78% 0.01 in
09:44 49.9 °F 43.3 °F 29.70 in West 17.0 mph 29.0 mph 78% 0.01 in
09:49 49.0 °F 42.8 °F 29.70 in SW 15.0 mph 27.0 mph 79% 0.01 in
09:54 48.0 °F 41.8 °F 29.71 in SW 16.0 mph 29.0 mph 79% 0.01 in
09:59 47.0 °F 40.8 °F 29.72 in WSW 16.0 mph 30.0 mph 79% 0.01 in
10:04 46.2 °F 40.4 °F 29.72 in WSW 16.0 mph 30.0 mph 80% 0.01 in
10:09 45.4 °F 39.6 °F 29.73 in SW 16.0 mph 30.0 mph 80% 0.01 in
10:14 44.8 °F 39.3 °F 29.73 in SW 15.0 mph 30.0 mph 81% 0.01 in
10:19 44.3 °F 38.8 °F 29.74 in West 16.0 mph 24.0 mph 81% 0.00 in
10:24 43.9 °F 38.4 °F 29.74 in SW 18.0 mph 27.0 mph 81% 0.00 in
10:29 43.8 °F 38.3 °F 29.75 in SW 20.0 mph 25.0 mph 81% 0.00 in
10:34 43.6 °F 37.8 °F 29.75 in West 13.0 mph 31.0 mph 80% 0.00 in
10:39 43.6 °F 37.8 °F 29.76 in WSW 10.0 mph 21.0 mph 80% 0.00 in
10:44 43.4 °F 37.6 °F 29.77 in SW 10.0 mph 27.0 mph 80% 0.00 in
10:49 43.1 °F 37.3 °F 29.77 in SW 10.0 mph 31.0 mph 80% 0.00 in
10:54 43.0 °F 37.3 °F 29.78 in WSW 16.0 mph 30.0 mph 80% 0.00 in
10:59 43.0 °F 37.3 °F 29.79 in SW 13.0 mph 30.0 mph 80% 0.00 in
11:04 43.0 °F 37.3 °F 29.79 in SW 14.0 mph 28.0 mph 80% 0.00 in
11:09 42.9 °F 36.5 °F 29.80 in SW 15.0 mph 28.0 mph 78% 0.00 in
11:14 42.8 °F 36.4 °F 29.80 in SW 10.0 mph 25.0 mph 78% 0.00 in
11:19 42.7 °F 36.6 °F 29.80 in SW 12.0 mph 22.0 mph 79% 0.00 in
11:24 42.9 °F 36.5 °F 29.80 in SW 13.0 mph 27.0 mph 78% 0.00 in
11:29 43.1 °F 36.7 °F 29.80 in SW 13.0 mph 27.0 mph 78% 0.00 in
11:34 43.2 °F 36.5 °F 29.80 in SW 14.0 mph 30.0 mph 77% 0.00 in
11:39 43.4 °F 36.7 °F 29.81 in SW 13.0 mph 30.0 mph 77% 0.00 in
11:44 43.1 °F 36.0 °F 29.80 in SW 13.0 mph 27.0 mph 76% 0.00 in
11:49 42.8 °F 35.8 °F 29.80 in SW 8.0 mph 25.0 mph 76% 0.00 in
11:54 42.8 °F 36.1 °F 29.80 in SSW 19.0 mph 24.0 mph 77% 0.00 in
11:59 42.4 °F 35.7 °F 29.80 in SW 13.0 mph 28.0 mph 77% 0.00 in
12:04 42.2 °F 35.5 °F 29.80 in West 9.0 mph 24.0 mph 77% 0.00 in
12:09 41.9 °F 35.5 °F 29.81 in SSW 16.0 mph 26.0 mph 78% 0.00 in
12:14 42.2 °F 35.8 °F 29.81 in WSW 18.0 mph 32.0 mph 78% 0.00 in
12:19 42.5 °F 35.8 °F 29.81 in West 14.0 mph 26.0 mph 77% 0.00 in
12:24 42.2 °F 35.8 °F 29.81 in WSW 13.0 mph 26.0 mph 78% 0.00 in
12:29 42.1 °F 35.7 °F 29.81 in WSW 13.0 mph 25.0 mph 78% 0.00 in
12:34 41.9 °F 35.5 °F 29.81 in WSW 14.0 mph 25.0 mph 78% 0.00 in
12:39 41.8 °F 35.4 °F 29.81 in WSW 16.0 mph 22.0 mph 78% 0.00 in
12:44 41.8 °F 35.4 °F 29.81 in SW 13.0 mph 22.0 mph 78% 0.00 in
12:49 41.9 °F 34.9 °F 29.80 in WSW 13.0 mph 25.0 mph 76% 0.00 in
12:54 42.1 °F 35.1 °F 29.81 in WSW 13.0 mph 25.0 mph 76% 0.00 in
12:59 42.0 °F 34.6 °F 29.80 in WSW 11.0 mph 24.0 mph 75% 0.00 in
13:04 41.9 °F 33.9 °F 29.81 in SW 21.0 mph 31.0 mph 73% 0.00 in
13:09 42.0 °F 34.0 °F 29.81 in SW 14.0 mph 26.0 mph 73% 0.00 in
13:14 42.1 °F 33.7 °F 29.81 in NW 19.0 mph 26.0 mph 72% 0.00 in
13:19 42.1 °F 33.7 °F 29.82 in WSW 14.0 mph 26.0 mph 72% 0.00 in
13:24 41.8 °F 33.1 °F 29.82 in WSW 15.0 mph 27.0 mph 71% 0.00 in
13:29 41.3 °F 32.6 °F 29.82 in WSW 14.0 mph 34.0 mph 71% 0.00 in
13:34 41.4 °F 33.0 °F 29.82 in WSW 17.0 mph 29.0 mph 72% 0.00 in
13:39 41.2 °F 32.5 °F 29.82 in WSW 12.0 mph 29.0 mph 71% 0.00 in
13:44 41.9 °F 33.2 °F 29.83 in WSW 16.0 mph 31.0 mph 71% 0.00 in
13:49 42.4 °F 33.3 °F 29.83 in WSW 15.0 mph 31.0 mph 70% 0.00 in
13:54 42.8 °F 33.7 °F 29.83 in WSW 15.0 mph 32.0 mph 70% 0.00 in
13:59 42.2 °F 33.1 °F 29.83 in WSW 15.0 mph 32.0 mph 70% 0.00 in
14:04 41.6 °F 33.2 °F 29.84 in WSW 14.0 mph 28.0 mph 72% 0.00 in
14:09 41.4 °F 33.4 °F 29.84 in SW 17.0 mph 21.0 mph 73% 0.00 in
14:14 40.4 °F 32.4 °F 29.84 in SW 12.0 mph 25.0 mph 73% 0.00 in
14:19 39.7 °F 32.4 °F 29.85 in SW 19.0 mph 28.0 mph 75% 0.00 in
14:24 39.5 °F 32.6 °F 29.85 in SSW 6.0 mph 23.0 mph 76% 0.00 in
14:29 40.0 °F 33.4 °F 29.85 in WSW 10.0 mph 22.0 mph 77% 0.00 in
14:34 40.1 °F 33.1 °F 29.85 in West 14.0 mph 18.0 mph 76% 0.00 in
14:39 40.0 °F 33.4 °F 29.85 in SSW 5.0 mph 22.0 mph 77% 0.00 in
14:44 39.7 °F 32.8 °F 29.86 in WSW 14.0 mph 17.0 mph 76% 0.00 in
14:49 39.0 °F 32.7 °F 29.86 in SW 11.0 mph 27.0 mph 78% 0.00 in
14:54 39.1 °F 32.5 °F 29.87 in SW 13.0 mph 27.0 mph 77% 0.00 in
14:59 39.7 °F 33.4 °F 29.87 in SW 12.0 mph 26.0 mph 78% 0.00 in
15:04 40.1 °F 33.5 °F 29.87 in SW 12.0 mph 22.0 mph 77% 0.00 in
15:09 40.1 °F 33.5 °F 29.87 in SSW 11.0 mph 23.0 mph 77% 0.00 in
15:14 39.5 °F 32.6 °F 29.87 in SW 11.0 mph 23.0 mph 76% 0.00 in
15:19 39.1 °F 32.8 °F 29.87 in WSW 11.0 mph 22.0 mph 78% 0.00 in
15:29 39.3 °F 32.7 °F 29.87 in SSW 10.0 mph 19.0 mph 77% 0.00 in
15:34 39.3 °F 32.7 °F 29.87 in SW 10.0 mph 23.0 mph 77% 0.00 in
15:39 39.4 °F 32.8 °F 29.88 in WSW 11.0 mph 23.0 mph 77% 0.00 in
15:44 39.0 °F 32.4 °F 29.88 in SW 12.0 mph 24.0 mph 77% 0.00 in
15:49 39.0 °F 32.7 °F 29.88 in WSW 12.0 mph 18.0 mph 78% 0.00 in
15:54 39.2 °F 32.6 °F 29.88 in SSW 10.0 mph 23.0 mph 77% 0.00 in
16:04 38.4 °F 32.1 °F 29.89 in SSW 6.0 mph 20.0 mph 78% 0.00 in
16:09 38.5 °F 32.6 °F 29.89 in WSW 7.0 mph 24.0 mph 79% 0.00 in
16:14 38.3 °F 32.4 °F 29.89 in SW 11.0 mph 24.0 mph 79% 0.00 in
16:19 38.2 °F 32.3 °F 29.89 in SW 11.0 mph 26.0 mph 79% 0.00 in
16:24 38.1 °F 32.2 °F 29.90 in SSW 8.0 mph 19.0 mph 79% 0.00 in
16:29 38.0 °F 32.1 °F 29.90 in West 14.0 mph 27.0 mph 79% 0.00 in
16:34 37.7 °F 32.1 °F 29.90 in SW 10.0 mph 27.0 mph 80% 0.00 in
16:39 37.3 °F 31.7 °F 29.90 in SW 11.0 mph 23.0 mph 80% 0.00 in
16:44 37.3 °F 31.7 °F 29.90 in SW 11.0 mph 23.0 mph 80% 0.00 in
16:49 37.4 °F 31.8 °F 29.91 in SW 8.0 mph 22.0 mph 80% 0.00 in
16:54 37.3 °F 31.7 °F 29.91 in SW 10.0 mph 22.0 mph 80% 0.00 in
16:59 37.0 °F 31.4 °F 29.91 in WSW 17.0 mph 22.0 mph 80% 0.00 in
17:04 37.0 °F 31.4 °F 29.92 in SW 11.0 mph 18.0 mph 80% 0.00 in
17:09 37.0 °F 31.4 °F 29.91 in SSW 14.0 mph 21.0 mph 80% 0.00 in
17:14 36.9 °F 31.3 °F 29.91 in SW 9.0 mph 21.0 mph 80% 0.00 in
17:19 36.7 °F 31.1 °F 29.92 in SSW 10.0 mph 20.0 mph 80% 0.00 in
17:24 36.7 °F 31.1 °F 29.92 in SW 10.0 mph 20.0 mph 80% 0.00 in
17:29 36.6 °F 31.0 °F 29.92 in SW 10.0 mph 17.0 mph 80% 0.00 in
17:34 36.5 °F 30.9 °F 29.92 in SW 9.0 mph 18.0 mph 80% 0.00 in
17:39 36.3 °F 30.7 °F 29.92 in SSW 7.0 mph 16.0 mph 80% 0.00 in
17:44 36.2 °F 30.9 °F 29.93 in SW 10.0 mph 15.0 mph 81% 0.00 in
17:54 35.9 °F 30.6 °F 29.93 in SSW 6.0 mph 16.0 mph 81% 0.00 in
17:59 35.9 °F 30.6 °F 29.94 in WSW 13.0 mph 22.0 mph 81% 0.00 in
18:04 35.9 °F 30.6 °F 29.94 in WSW 6.0 mph 20.0 mph 81% 0.00 in
18:09 35.9 °F 30.6 °F 29.95 in SW 9.0 mph 20.0 mph 81% 0.00 in
18:14 35.9 °F 30.6 °F 29.95 in WSW 9.0 mph 19.0 mph 81% 0.00 in
18:19 35.9 °F 30.6 °F 29.95 in WSW 9.0 mph 16.0 mph 81% 0.00 in
18:24 35.8 °F 30.5 °F 29.96 in SW 8.0 mph 16.0 mph 81% 0.00 in
18:29 35.6 °F 30.3 °F 29.96 in SW 8.0 mph 16.0 mph 81% 0.00 in
18:34 35.6 °F 30.6 °F 29.96 in WSW 6.0 mph 14.0 mph 82% 0.00 in
18:39 35.6 °F 30.6 °F 29.95 in SW 8.0 mph 15.0 mph 82% 0.00 in
18:44 35.5 °F 30.5 °F 29.96 in SW 8.0 mph 16.0 mph 82% 0.00 in
18:49 35.5 °F 30.5 °F 29.96 in SW 8.0 mph 16.0 mph 82% 0.00 in
18:54 35.4 °F 30.5 °F 29.96 in WSW 5.0 mph 16.0 mph 82% 0.00 in
18:59 35.5 °F 30.5 °F 29.96 in SW 6.0 mph 14.0 mph 82% 0.00 in
19:04 35.4 °F 30.5 °F 29.96 in WSW 8.0 mph 12.0 mph 82% 0.00 in
19:09 35.4 °F 30.5 °F 29.96 in SW 8.0 mph 14.0 mph 82% 0.00 in
19:14 35.5 °F 30.5 °F 29.97 in WSW 8.0 mph 17.0 mph 82% 0.00 in
19:19 35.5 °F 30.5 °F 29.97 in SW 9.0 mph 17.0 mph 82% 0.00 in
19:24 35.5 °F 30.5 °F 29.97 in WSW 8.0 mph 15.0 mph 82% 0.00 in
19:29 35.5 °F 30.2 °F 29.98 in SW 8.0 mph 19.0 mph 81% 0.00 in
19:34 35.4 °F 30.1 °F 29.98 in WSW 8.0 mph 19.0 mph 81% 0.00 in
19:39 35.4 °F 30.1 °F 29.98 in WSW 7.0 mph 16.0 mph 81% 0.00 in
19:44 35.3 °F 30.1 °F 29.99 in WSW 9.0 mph 19.0 mph 81% 0.00 in
19:49 35.2 °F 30.3 °F 29.99 in SW 8.0 mph 19.0 mph 82% 0.00 in
19:54 35.2 °F 30.3 °F 29.99 in SW 8.0 mph 15.0 mph 82% 0.00 in
19:59 35.1 °F 30.2 °F 29.99 in SW 8.0 mph 15.0 mph 82% 0.00 in
20:04 35.0 °F 30.1 °F 30.00 in WSW 8.0 mph 14.0 mph 82% 0.00 in
20:09 35.0 °F 30.1 °F 30.00 in SW 9.0 mph 13.0 mph 82% 0.00 in
20:14 35.0 °F 30.1 °F 30.00 in SSW 7.0 mph 14.0 mph 82% 0.00 in
20:19 35.0 °F 30.1 °F 30.00 in WSW 9.0 mph 17.0 mph 82% 0.00 in
20:24 35.0 °F 30.1 °F 30.00 in SW 9.0 mph 17.0 mph 82% 0.00 in
20:29 35.0 °F 30.1 °F 30.00 in South 11.0 mph 14.0 mph 82% 0.00 in
20:34 34.9 °F 30.0 °F 30.01 in SW 7.0 mph 14.0 mph 82% 0.00 in
20:39 34.9 °F 30.0 °F 30.01 in WSW 7.0 mph 17.0 mph 82% 0.00 in
20:44 34.9 °F 30.0 °F 30.01 in SW 9.0 mph 15.0 mph 82% 0.00 in
20:49 34.8 °F 29.9 °F 30.01 in WSW 8.0 mph 16.0 mph 82% 0.00 in
20:54 34.7 °F 29.8 °F 30.02 in WSW 8.0 mph 16.0 mph 82% 0.00 in
20:59 34.8 °F 29.9 °F 30.01 in WSW 8.0 mph 18.0 mph 82% 0.00 in
21:04 34.7 °F 29.8 °F 30.02 in WSW 8.0 mph 18.0 mph 82% 0.00 in
21:09 34.6 °F 29.7 °F 30.02 in SW 8.0 mph 14.0 mph 82% 0.00 in
21:14 34.6 °F 29.7 °F 30.02 in SW 6.0 mph 15.0 mph 82% 0.00 in
21:19 34.6 °F 30.0 °F 30.02 in SW 13.0 mph 14.0 mph 83% 0.00 in
21:24 34.6 °F 30.0 °F 30.02 in SW 10.0 mph 16.0 mph 83% 0.00 in
21:29 34.6 °F 30.0 °F 30.02 in West 17.0 mph 17.0 mph 83% 0.00 in
21:34 34.6 °F 30.0 °F 30.02 in South 8.0 mph 17.0 mph 83% 0.00 in
21:39 34.5 °F 29.9 °F 30.03 in SW 8.0 mph 15.0 mph 83% 0.00 in
21:44 34.6 °F 30.0 °F 30.03 in SW 8.0 mph 16.0 mph 83% 0.00 in
21:49 34.6 °F 30.0 °F 30.04 in SW 8.0 mph 16.0 mph 83% 0.00 in
21:54 34.6 °F 30.0 °F 30.04 in SW 9.0 mph 16.0 mph 83% 0.00 in
21:59 34.6 °F 30.0 °F 30.04 in SW 9.0 mph 19.0 mph 83% 0.00 in
22:04 34.8 °F 30.2 °F 30.04 in West 7.0 mph 22.0 mph 83% 0.00 in
22:09 34.9 °F 30.0 °F 30.04 in WSW 11.0 mph 17.0 mph 82% 0.00 in
22:14 35.1 °F 30.2 °F 30.04 in SW 9.0 mph 17.0 mph 82% 0.00 in
22:19 35.1 °F 30.2 °F 30.04 in SW 13.0 mph 17.0 mph 82% 0.00 in
22:24 35.2 °F 30.0 °F 30.04 in SW 9.0 mph 16.0 mph 81% 0.00 in
22:29 35.1 °F 29.9 °F 30.05 in West 10.0 mph 16.0 mph 81% 0.00 in
22:34 35.0 °F 29.8 °F 30.05 in WSW 9.0 mph 15.0 mph 81% 0.00 in
22:39 35.0 °F 30.1 °F 30.05 in WSW 9.0 mph 15.0 mph 82% 0.00 in
22:44 34.9 °F 30.0 °F 30.05 in West 4.0 mph 15.0 mph 82% 0.00 in
22:49 34.8 °F 29.9 °F 30.05 in SW 10.0 mph 16.0 mph 82% 0.00 in
22:54 34.7 °F 29.8 °F 30.06 in SW 8.0 mph 16.0 mph 82% 0.00 in
22:59 34.7 °F 29.8 °F 30.06 in West 6.0 mph 14.0 mph 82% 0.00 in
23:04 34.7 °F 29.8 °F 30.05 in SW 7.0 mph 11.0 mph 82% 0.00 in
23:09 34.7 °F 29.8 °F 30.05 in WSW 7.0 mph 18.0 mph 82% 0.00 in
23:14 34.8 °F 29.9 °F 30.06 in WSW 7.0 mph 18.0 mph 82% 0.00 in
23:19 34.7 °F 29.8 °F 30.06 in WSW 7.0 mph 15.0 mph 82% 0.00 in
23:24 34.8 °F 29.9 °F 30.06 in WSW 8.0 mph 16.0 mph 82% 0.00 in
23:29 34.9 °F 30.0 °F 30.05 in SW 10.0 mph 15.0 mph 82% 0.00 in
23:34 34.9 °F 30.0 °F 30.05 in WSW 8.0 mph 13.0 mph 82% 0.00 in
23:39 34.9 °F 30.0 °F 30.06 in SW 8.0 mph 14.0 mph 82% 0.00 in
23:44 35.0 °F 30.1 °F 30.06 in WSW 8.0 mph 17.0 mph 82% 0.00 in
23:49 35.0 °F 30.1 °F 30.06 in SW 6.0 mph 18.0 mph 82% 0.00 in
23:54 34.9 °F 30.0 °F 30.06 in SSW 10.0 mph 15.0 mph 82% 0.00 in
23:59 34.8 °F 29.9 °F 30.06 in SW 8.0 mph 12.0 mph 82% 0.00 in
Buffalo, New York, USA
Compliments of Weather Underground - 2.5 mb